METAR de aeropuertos de Murcia y cercanos

 

LEAL - Alicante
Actualización: 28/05/2017 22:00
Despejado
Despejado
 Viento del ENE
Viento: ENE 17 km/h
Temperatura: 23°C
Rocío: 12°C
Humedad: 50%
Barómetro: 1017 hPa
Resumen: Despejado
Visibilidad: greater than 10 km
2017/05/28 20:00 LEAL 282000Z 06009KT 020V090 CAVOK 23/12 Q1017 NOSIG
LEAB - Albacete
Actualización: 28/05/2017 22:00
Despejado
Despejado
 Viento del SSE
Viento: SSE 15 km/h
Temperatura: 20°C
Rocío: 4°C
Humedad: 35%
Barómetro: 1019 hPa
Resumen: Despejado
Visibilidad: greater than 10 km
2017/05/28 20:00 LEAB 282000Z 15008KT CAVOK 20/04 Q1019 NOSIG
LEAM - Almería
Actualización: 28/05/2017 22:00
Few Clouds
Few Clouds
 Viento del OSO
Viento: OSO 11 km/h
Temperatura: 22°C
Rocío: 17°C
Humedad: 73%
Barómetro: 1016 hPa
Nubosidad: Few Clouds
Visibilidad: 10 km
Cloud details: Few Clouds 914 m
2017/05/28 20:00 LEAM 282000Z 24006KT 200V280 9999 FEW030 22/17 Q1016
 
LERI - Murcia/Alcantarilla
Actualización: 28/05/2017 20:00
NO Actualizado
Despejado
Despejado
 Viento del E
Viento: E 22 km/h
Temperatura: 24°C
Rocío: 12°C
Humedad: 47%
Barómetro: 1016 hPa
Resumen: Despejado
Visibilidad: greater than 10 km
2017/05/28 18:00 LERI 281800Z 09012KT CAVOK 24/12 Q1016 NOSIG
LELC - Murcia/San Javier
Actualización: 28/05/2017 22:00
Despejado
Despejado
 Viento del NE
Viento: NE 22 km/h
Temperatura: 22°C
Rocío: 16°C
Humedad: 69%
Barómetro: 1016 hPa
Resumen: Despejado
Visibilidad: greater than 10 km
2017/05/28 20:00 LELC 282000Z 04012KT 010V070 CAVOK 22/16 Q1016 NOSIG

La estación de MeteoMurcia.com, publica sus datos en los siguientes proyectos:

Meteoclimatic www.awekas.at

W3Counter
Web Analytics